Hutchinson, MN

4:40 PM CST on December 06, 2016 (GMT -0600)
Hutchinson Municipal-Butler

Weather History for KHCD - January, 2013

Change the Weather History Date:

Friday, January 18, 2013

  Actual Average Record
Temperature  
Mean Temperature 28 °F -  
Max Temperature 37 °F 22 °F 49 °F (1981)
Min Temperature 19 °F 3 °F -34 °F (1970)
Degree Days  
Heating Degree Days 37    
Moisture  
Dew Point 26 °F    
Average Humidity 88    
Maximum Humidity 96    
Minimum Humidity 79    
Precipitation  
Precipitation 0.00 in - - ()
Sea Level Pressure  
Sea Level Pressure 29.86 in    
Wind  
Wind Speed 8 mph (SSW)    
Max Wind Speed 13 mph    
Max Gust Speed -    
Visibility 10 miles    
Events      
Averages and records for this station are not official NWS values.
T = Trace of Precipitation, MM = Missing Value Source: NWS Daily Summary

Daily Weather History Graph

Daily Weather History Graph

Search for Another Location

Airport or City:

Trip Planner

Search our weather history database for the weather conditions in past years. The results will help you decide how hot, cold, wet, or windy it might be!

Date:

Astronomy

Jan. 18, 2013 Rise Set
Actual Time 7:49 AM CST 5:06 PM CST
Civil Twilight 7:17 AM CST 5:39 PM CST
Nautical Twilight 6:41 AM CST 6:15 PM CST
Astronomical Twilight 6:06 AM CST 6:50 PM CST
Moon 11:07 AM CST (1/18) 12:18 AM CST (1/18)
Length of Visible Light 10h 21m
Length of Day
9h 17m
Waxing Crescent, 47% of the Moon is Illuminated
Jan 18
Waxing Crescent
Jan 18
First Quarter
Jan 26
Full
Feb 3
Last Quarter
Feb 10
New

Hourly Weather History & Observations

Time (CST) Temp. Windchill Dew Point Humidity Pressure Visibility Wind Dir Wind Speed Gust Speed Precip Events Conditions
12:09 AM 19.0 °F 9.0 °F 14.7 °F 83% 30.21 in 10.0 mi ESE 8.1 mph - N/A   Overcast
12:28 AM 19.2 °F 10.2 °F 15.4 °F 85% 30.21 in 10.0 mi SE 6.9 mph - N/A   Overcast
12:48 AM 19.2 °F 10.2 °F 15.8 °F 87% 30.19 in 10.0 mi ESE 6.9 mph - N/A   Overcast
1:08 AM 19.2 °F 8.4 °F 16.2 °F 88% 30.17 in 10.0 mi SE 9.2 mph - N/A   Overcast
1:29 AM 19.2 °F 7.0 °F 15.8 °F 87% 30.15 in 10.0 mi ESE 11.5 mph - N/A   Overcast
1:48 AM 19.8 °F 8.3 °F 16.2 °F 86% 30.14 in 10.0 mi ESE 10.4 mph - N/A   Overcast
2:08 AM 20.3 °F 7.7 °F 16.3 °F 85% 30.12 in 10.0 mi ESE 12.7 mph - N/A   Overcast
2:29 AM 20.3 °F 7.7 °F 16.3 °F 85% 30.10 in 10.0 mi ESE 12.7 mph - N/A   Overcast
2:48 AM 20.3 °F 7.7 °F 16.5 °F 85% 30.08 in 10.0 mi ESE 12.7 mph - N/A   Overcast
3:09 AM 20.8 °F 8.4 °F 17.6 °F 87% 30.06 in 10.0 mi ESE 12.7 mph - N/A   Overcast
3:28 AM 21.7 °F 12.3 °F 17.8 °F 85% 30.07 in 10.0 mi ESE 8.1 mph - N/A   Mostly Cloudy
3:48 AM 21.7 °F 10.2 °F 17.4 °F 83% 30.04 in 10.0 mi ESE 11.5 mph - N/A   Scattered Clouds
4:08 AM 21.7 °F 10.2 °F 17.8 °F 85% 30.02 in 10.0 mi ESE 11.5 mph - N/A   Mostly Cloudy
4:28 AM 22.3 °F 10.2 °F 19.0 °F 87% 30.00 in 10.0 mi ESE 12.7 mph - N/A   Overcast
4:49 AM 23.0 °F 11.7 °F 19.8 °F 87% 29.98 in 10.0 mi ESE 11.5 mph - N/A   Scattered Clouds
5:08 AM 23.0 °F 12.4 °F 20.1 °F 89% 29.97 in 10.0 mi ESE 10.4 mph - N/A   Scattered Clouds
5:28 AM 23.0 °F 13.1 °F 20.3 °F 89% 29.95 in 10.0 mi ESE 9.2 mph - N/A   Mostly Cloudy
5:49 AM 24.3 °F 13.9 °F 21.9 °F 91% 29.93 in 10.0 mi SE 10.4 mph - N/A   Overcast
6:09 AM 25.5 °F 15.5 °F 23.4 °F 92% 29.90 in 10.0 mi SE 10.4 mph - N/A   Overcast
6:28 AM 26.6 °F 16.8 °F 24.8 °F 93% 29.89 in 10.0 mi SE 10.4 mph - N/A   Overcast
6:48 AM 27.5 °F 19.3 °F 25.9 °F 94% 29.87 in 10.0 mi SE 8.1 mph - N/A   Overcast
7:08 AM 29.3 °F - 27.9 °F 94% 29.86 in 7.0 mi Calm Calm - N/A   Mostly Cloudy
7:29 AM 29.3 °F 23.2 °F 28.0 °F 95% 29.86 in 7.0 mi SSE 5.8 mph - N/A   Mostly Cloudy
7:48 AM 29.3 °F 24.3 °F 28.2 °F 96% 29.84 in 7.0 mi SSE 4.6 mph - N/A   Mostly Cloudy
8:08 AM 29.3 °F 23.2 °F 28.2 °F 96% 29.83 in 5.0 mi South 5.8 mph - N/A   Mostly Cloudy
8:29 AM 29.3 °F 22.3 °F 27.9 °F 94% 29.82 in 7.0 mi South 6.9 mph - N/A   Clear
8:48 AM 29.5 °F 22.5 °F 27.7 °F 93% 29.81 in 7.0 mi South 6.9 mph - N/A   Clear
9:08 AM 30.6 °F 22.4 °F 28.4 °F 92% 29.81 in 7.0 mi South 9.2 mph - N/A   Clear
9:28 AM 30.6 °F 27.1 °F 28.2 °F 91% 29.82 in 7.0 mi SSW 3.5 mph - N/A   Clear
10:08 AM 34.0 °F 28.0 °F 30.7 °F 88% 29.81 in 7.0 mi South 6.9 mph - N/A   Clear
10:28 AM 34.0 °F 29.8 °F 30.2 °F 86% 29.80 in 10.0 mi SSW 4.6 mph - N/A   Clear
10:48 AM 34.0 °F 29.8 °F 29.7 °F 84% 29.79 in 10.0 mi SSW 4.6 mph - N/A   Clear
11:09 AM 34.9 °F 28.3 °F 30.4 °F 84% 29.78 in 10.0 mi SSW 8.1 mph - N/A   Clear
11:27 AM 36.5 °F 30.3 °F 30.9 °F 80% 29.77 in 10.0 mi SW 8.1 mph - N/A   Clear
11:49 AM 36.5 °F 29.7 °F 30.7 °F 80% 29.75 in 10.0 mi SSW 9.2 mph - N/A   Clear
12:08 PM 36.5 °F 29.2 °F 30.7 °F 80% 29.74 in 10.0 mi SW 10.4 mph - N/A   Clear
12:29 PM 36.5 °F 29.7 °F 30.6 °F 79% 29.73 in 10.0 mi SW 9.2 mph - N/A   Clear
12:48 PM 36.9 °F 31.4 °F 30.9 °F 79% 29.73 in 10.0 mi SW 6.9 mph - N/A   Clear
1:09 PM 36.9 °F 30.1 °F 30.9 °F 79% 29.72 in 10.0 mi WSW 9.2 mph - N/A   Clear
1:29 PM 36.7 °F 31.2 °F 30.9 °F 80% 29.72 in 10.0 mi WSW 6.9 mph - N/A   Clear
1:49 PM 36.5 °F 29.7 °F 31.6 °F 83% 29.73 in 10.0 mi WSW 9.2 mph - N/A   Clear
2:08 PM 37.8 °F 31.3 °F 32.0 °F 80% 29.73 in 10.0 mi WSW 9.2 mph - N/A   Clear
2:29 PM 36.5 °F 30.3 °F 31.6 °F 83% 29.72 in 10.0 mi WSW 8.1 mph - N/A   Clear
2:48 PM 36.5 °F 29.7 °F 31.8 °F 83% 29.73 in 10.0 mi West 9.2 mph - N/A   Clear
3:07 PM 36.5 °F 29.7 °F 32.0 °F 84% 29.74 in 10.0 mi WSW 9.2 mph - N/A   Clear
3:29 PM 36.5 °F 29.7 °F 32.4 °F 85% 29.74 in 10.0 mi WSW 9.2 mph - N/A   Clear
3:49 PM 36.5 °F 30.3 °F 31.8 °F 83% 29.75 in 10.0 mi WSW 8.1 mph - N/A   Clear
4:09 PM 36.5 °F 29.7 °F 32.0 °F 84% 29.75 in 10.0 mi WSW 9.2 mph - N/A   Clear
4:28 PM 36.5 °F 29.7 °F 32.2 °F 84% 29.76 in 10.0 mi WSW 9.2 mph - N/A   Clear
4:48 PM 35.2 °F 28.1 °F 31.1 °F 85% 29.75 in 10.0 mi WSW 9.2 mph - N/A   Clear
5:09 PM 34.0 °F 26.6 °F 30.9 °F 89% 29.76 in 10.0 mi WSW 9.2 mph - N/A   Clear
5:28 PM 34.0 °F 26.0 °F 31.1 °F 89% 29.77 in 10.0 mi West 10.4 mph - N/A   Clear
5:48 PM 34.0 °F 26.6 °F 31.1 °F 89% 29.77 in 10.0 mi West 9.2 mph - N/A   Clear
6:08 PM 34.0 °F 26.6 °F 31.5 °F 90% 29.78 in 10.0 mi West 9.2 mph - N/A   Clear
6:29 PM 30.6 °F 23.1 °F 28.2 °F 91% 29.78 in 10.0 mi WSW 8.1 mph - N/A   Clear
6:48 PM 30.6 °F 23.1 °F 28.4 °F 92% 29.78 in 10.0 mi WSW 8.1 mph - N/A   Clear
7:08 PM 29.3 °F 21.5 °F 27.3 °F 92% 29.79 in 10.0 mi WSW 8.1 mph - N/A   Scattered Clouds
7:28 PM 31.8 °F 24.6 °F 29.3 °F 90% 29.79 in 10.0 mi West 8.1 mph - N/A   Mostly Cloudy
7:48 PM 30.6 °F 23.1 °F 28.2 °F 91% 29.79 in 10.0 mi West 8.1 mph - N/A   Scattered Clouds
8:09 PM 29.5 °F 23.4 °F 27.0 °F 90% 29.79 in 10.0 mi West 5.8 mph - N/A   Clear
8:28 PM 29.3 °F 23.2 °F 27.5 °F 93% 29.79 in 10.0 mi WSW 5.8 mph - N/A   Clear
8:48 PM 30.0 °F 22.4 °F 28.4 °F 94% 29.78 in 10.0 mi SW 8.1 mph - N/A   Clear
9:08 PM 30.7 °F 24.1 °F 28.8 °F 92% 29.78 in 10.0 mi SW 6.9 mph - N/A   Clear
9:28 PM 31.8 °F 26.2 °F 29.3 °F 90% 29.77 in 10.0 mi SW 5.8 mph - N/A   Clear
9:48 PM 31.5 °F 26.8 °F 28.9 °F 90% 29.76 in 10.0 mi SW 4.6 mph - N/A   Clear
10:08 PM 29.8 °F 23.9 °F 27.9 °F 92% 29.76 in 10.0 mi WSW 5.8 mph - N/A   Clear
10:29 PM 26.6 °F 22.6 °F 25.5 °F 96% 29.77 in 10.0 mi West 3.5 mph - N/A   Clear
10:48 PM 29.3 °F 23.2 °F 28.2 °F 96% 29.77 in 10.0 mi West 5.8 mph - N/A   Clear
11:08 PM 29.3 °F 25.6 °F 28.4 °F 96% 29.78 in 10.0 mi SW 3.5 mph - N/A   Clear
11:28 PM 29.3 °F - 28.2 °F 96% 29.77 in 10.0 mi Calm Calm - N/A   Clear
11:48 PM 29.3 °F - 28.4 °F 96% 29.76 in 10.0 mi Calm Calm - N/A   Clear